x

Boston 16 Nm East Of Boston, Ma (44013) Wave Buoy

8:50 - Fri 19th Dec 2014 All times are EST. -5 hours from GMT.

  • Sig Wave height 2.3ft
  • Swell Direction
  • Peak Period 4s
  • Average Period 3s
  • Wind
    16mph, 20mph gusts
  • Sea Temp 45°f
  • Ar Temp 33°f
  • Sea Pressure 1018.7mb
  • Boston 16 Nm East Of Boston, Ma
  • Boston 16 Nm East Of Boston, Ma

More Historic Weather Station data

Upgrade to MSW Pro to gain access to the past 30 days of data for over 8000 Wavebouys and Weather Stations around the globe.

Join Pro

Comparision Forecast

View Surf forecast
   
Sex 12/19 8:50 2.5ft 4s 3s 16 20 mph 1018.7mb 45f 33f
7:50 2.5ft 3s 3s 18 22 mph 1018.1mb 45f 33f
6:50 2.5ft 4s 3s 18 20 mph 1017.5mb 45f 33f
5:50 2.5ft 3s 3s 20 25 mph 1016.8mb 45f 34f
4:50 1.6ft 3s 3s 16 20 mph 1016.2mb 45f 36f
3:50 1.3ft 11s 4s 11 16 mph 1015.4mb 45f 36f
2:50 1.6ft 11s 4s 9 11 mph 1014.9mb 45f 36f
1:50 1.6ft 3s 4s 11 16 mph 1014.1mb 45f 35f
12:50 2ft 4s 3s 13 16 mph 1014mb 45f 35f
11:50 2ft 4s 3s 13 18 mph 1013.8mb 45f 35f
10:50 2.5ft 4s 4s 16 20 mph 1014mb 45f 35f
9:50 2.5ft 3s 3s 18 22 mph 1013.8mb 45f 35f
8:50 2.5ft 4s 3s 20 25 mph 1013.3mb 45f 35f
7:50 2.5ft 4s 3s 22 29 mph 1012.4mb 45f 35f
6:50 2.5ft 4s 3s 22 29 mph 1012mb 45f 35f
5:50 2.5ft 3s 3s 20 27 mph 1011.6mb 45f 35f
4:50 2.5ft 3s 3s 18 22 mph 1011.2mb 45f 36f
3:50 2.5ft 3s 3s 20 25 mph 1011.2mb 45f 36f
2:50 2.5ft 4s 3s 20 22 mph 1011mb 45f 37f
1:50 2.5ft 3s 3s 20 25 mph 1010.9mb 45f 38f
12:50 2.5ft 3s 3s 20 27 mph 1010.5mb 45f 38f
Qui 12/18 11:50 2.5ft 3s 3s 18 25 mph 1010.7mb 45f 38f
10:50 2.5ft 3s 3s 18 25 mph 1010.4mb 45f 39f
9:50 2.5ft 3s 3s 25 27 mph 1009.8mb 45f 39f
8:50  -   -   -  22 27 mph 1009.8mb 45f 40f
7:50 2.5ft 4s 4s 20 22 mph 1010.1mb 45f 40f
6:50 3ft 4s 4s 20 25 mph 1009.9mb 45f 41f
5:50 3ft 4s 4s 22 27 mph 1009.3mb 45f 42f
4:50 3ft 4s 4s 22 27 mph 1008.9mb 45f 42f
3:50 3ft 4s 4s 20 25 mph 1008.6mb 45f 42f
2:50 3.5ft 4s 4s 22 27 mph 1007.9mb 45f 42f
1:50 3.5ft 4s 4s 22 27 mph 1007.3mb 44f 42f
12:50 3.5ft 4s 4s 25 29 mph 1007mb 44f 42f
11:50 3.5ft 4s 4s 27 31 mph 1006.9mb 44f 42f
10:50 3.5ft 4s 4s 27 31 mph 1007.1mb 44f 40f
9:50 4ft 4s 4s 25 31 mph 1007.4mb 45f 39f
8:50 4ft 4s 4s 27 36 mph 1006.9mb 45f 38f
7:50 4ft 4s 4s 27 31 mph 1006.4mb 45f 38f
6:50 4ft 4s 4s 27 31 mph 1006.1mb 45f 38f
5:50 3.5ft 8s 5s 25 29 mph 1005.7mb 46f 39f
4:50 4ft 8s 5s 25 31 mph 1005.2mb 46f 40f
3:50 4ft 7s 4s 22 27 mph 1005.5mb 46f 41f
2:50 4ft 8s 5s 22 27 mph 1005.8mb 46f 41f
1:50 4.5ft 8s 5s 20 27 mph 1005.7mb 46f 41f
12:50 4.5ft 8s 5s 22 29 mph 1005.5mb 46f 42f
Qua 12/17 11:50 4.5ft 8s 5s 22 29 mph 1005.5mb 46f 43f
10:50 4.5ft 8s 4s 25 31 mph 1005.7mb 46f 43f
9:50 4.5ft 8s 5s 22 29 mph 1005.5mb 46f 44f
8:50 4ft 7s 5s 25 29 mph 1005.4mb 46f 45f
7:50 4ft 7s 5s 20 27 mph 1005.9mb 46f 46f
6:50 3.5ft 7s 5s 18 22 mph 1005.9mb 46f 46f
5:50 3ft 6s 4s 13 16 mph 1005.7mb 46f 46f
4:50 3ft 3s 4s 16 18 mph 1005.6mb 46f 46f
3:50 3.5ft 3s 4s 18 22 mph 1004.9mb 47f 46f
2:50 3.5ft 9s 4s 22 27 mph 1004.7mb 47f 45f
1:50 3ft 11s 4s 18 20 mph 1004.8mb 46f 43f
12:50 3.5ft 10s 4s 16 20 mph 1004.9mb 46f 42f
11:50 3ft 3s 4s 18 22 mph 1005mb 46f 43f
10:50 3ft 10s 4s 18 22 mph 1005.7mb 46f 43f
9:50 2.5ft 10s 4s 16 20 mph 1005.9mb 47f 44f
8:50 2.5ft 10s 5s 16 20 mph 1005.9mb 47f 44f
7:50 2.5ft 10s 4s 7
mph
1006mb 47f 47f
6:50 2.5ft 4s 4s 7
mph
1006.5mb 47f 47f
5:50 2.5ft 4s 4s 7 9 mph 1007.1mb 47f 49f
4:50 2.5ft 8s 4s 9 11 mph 1008.2mb 47f 48f
3:50 2.5ft 4s 4s 13 16 mph 1008.9mb 47f 47f
2:50 2.5ft 9s 4s 13 16 mph 1009.9mb 47f 47f
1:50 2.5ft 10s 4s 11 16 mph 1011.6mb 47f 47f
12:50 2.5ft 10s 4s 11 13 mph 1012.5mb 47f 47f
Ter 12/16 11:50 2.5ft 9s 4s 11 13 mph 1013.1mb 47f 47f
10:50 2.5ft 10s 4s 11 13 mph 1014.3mb 47f 47f
9:50 2.5ft 10s 4s 11 13 mph 1015.1mb 47f 46f
8:50 2.5ft 9s 4s 13 18 mph 1015.4mb 46f 46f
7:50 2.5ft 10s 4s 18 20 mph 1015.8mb 46f 45f
6:50 1.6ft 10s 6s 13 16 mph 1016.7mb 46f 45f
5:50 1.6ft 10s 6s 9 11 mph 1017.8mb 46f 44f
4:50 1.6ft 10s 6s 7
mph
1018.2mb 46f 43f
3:50 2ft 10s 6s 4 7 mph 1018.7mb 46f 42f
2:50 2ft 8s 6s 4 7 mph 1018.7mb 46f 42f
1:50 2ft 10s 6s 4 7 mph 1018.9mb 46f 41f
12:50 1.6ft 9s 6s  -  mph 1019.6mb 46f 42f
11:50 1.6ft 10s 6s 2 4 mph 1019.9mb 46f 41f
10:50 1.6ft 10s 6s 4 7 mph 1021mb 46f 41f
9:50 1.6ft 11s 6s 4 9 mph 1021.6mb 46f 40f
8:50 1.6ft 10s 5s 7 9 mph 1021.5mb 46f 40f
7:50 1.6ft 10s 5s 7
mph
1021.3mb 46f 40f
6:50 2ft 11s 5s 4
mph
1020.7mb 46f 40f
5:50 2ft 11s 5s 4
mph
1020.4mb 46f 40f
4:50 2ft 5s 5s 7 9 mph 1021mb 46f 40f
3:50 2ft 9s 5s 9 11 mph 1021mb 46f 39f